createdAt,value
2023-04-27T00:01:12.710Z,5.34
2023-04-27T00:03:39.541Z,5.34
2023-04-27T00:06:06.370Z,5.33
2023-04-27T00:08:33.022Z,5.34
2023-04-27T00:10:59.850Z,5.29
2023-04-27T00:13:26.864Z,5.28
2023-04-27T00:15:55.721Z,5.18
2023-04-27T00:18:22.500Z,5.09
2023-04-27T00:20:48.964Z,5.01
2023-04-27T00:23:15.591Z,4.95
2023-04-27T00:25:43.375Z,4.91
2023-04-27T00:28:09.918Z,4.84
2023-04-27T00:30:36.453Z,4.83
2023-04-27T00:33:03.077Z,4.79
2023-04-27T00:35:29.685Z,4.74
2023-04-27T00:37:59.170Z,4.70
2023-04-27T00:40:25.675Z,4.68
2023-04-27T00:42:52.249Z,4.63
2023-04-27T00:45:18.837Z,4.59
2023-04-27T00:47:45.856Z,4.59
2023-04-27T00:50:12.480Z,4.59
2023-04-27T00:52:42.445Z,4.56
2023-04-27T00:55:09.540Z,4.59
2023-04-27T00:57:36.082Z,4.58
2023-04-27T01:00:06.551Z,4.55
2023-04-27T01:02:33.493Z,4.52
2023-04-27T01:05:03.886Z,4.47
2023-04-27T01:07:30.455Z,4.44
2023-04-27T01:09:56.901Z,4.43
2023-04-27T01:12:23.334Z,4.40
2023-04-27T01:14:49.922Z,4.38
2023-04-27T01:17:18.184Z,4.39
2023-04-27T01:19:45.073Z,4.35
2023-04-27T01:22:11.824Z,4.34
2023-04-27T01:24:38.272Z,4.36
2023-04-27T01:27:07.614Z,4.41
2023-04-27T01:29:34.022Z,4.45
2023-04-27T01:32:00.660Z,4.35
2023-04-27T01:34:27.111Z,4.41
2023-04-27T01:36:53.527Z,4.39
2023-04-27T01:39:20.064Z,4.36
2023-04-27T01:41:46.608Z,4.27
2023-04-27T01:44:13.166Z,4.22
2023-04-27T01:46:39.957Z,4.17
2023-04-27T01:49:06.458Z,4.10
2023-04-27T01:51:33.031Z,4.07
2023-04-27T01:53:59.763Z,4.01
2023-04-27T01:56:28.242Z,3.96
2023-04-27T01:58:54.713Z,3.92
2023-04-27T02:01:21.228Z,3.90
2023-04-27T02:03:47.928Z,3.89
2023-04-27T02:06:14.598Z,3.82
2023-04-27T02:08:41.291Z,3.80
2023-04-27T02:11:07.815Z,3.75
2023-04-27T02:13:34.349Z,3.71
2023-04-27T02:16:03.222Z,3.69
2023-04-27T02:18:29.737Z,3.71
2023-04-27T02:20:56.179Z,3.71
2023-04-27T02:23:22.621Z,3.68
2023-04-27T02:25:49.050Z,3.69
2023-04-27T02:28:15.553Z,3.65
2023-04-27T02:30:42.502Z,3.63
2023-04-27T02:33:08.930Z,3.62
2023-04-27T02:35:35.452Z,3.63
2023-04-27T02:38:04.413Z,3.61
2023-04-27T02:40:30.819Z,3.61
2023-04-27T02:43:00.276Z,3.68
2023-04-27T02:45:26.804Z,3.70
2023-04-27T02:47:53.384Z,3.70
2023-04-27T02:50:19.985Z,3.67
2023-04-27T02:52:46.508Z,3.77
2023-04-27T02:55:14.475Z,3.74
2023-04-27T02:57:41.303Z,3.71
2023-04-27T03:00:10.012Z,3.65
2023-04-27T03:02:36.631Z,3.61
2023-04-27T03:05:03.831Z,3.60
2023-04-27T03:07:31.621Z,3.58
2023-04-27T03:09:58.079Z,3.52
2023-04-27T03:12:24.476Z,3.50
2023-04-27T03:14:51.036Z,3.54
2023-04-27T03:17:17.553Z,3.56
2023-04-27T03:19:44.061Z,3.58
2023-04-27T03:22:10.570Z,3.61
2023-04-27T03:24:36.934Z,3.61
2023-04-27T03:27:03.457Z,3.58
2023-04-27T03:29:29.917Z,3.55
2023-04-27T03:31:56.567Z,3.50
2023-04-27T03:34:23.588Z,3.49
2023-04-27T03:36:50.809Z,3.44
2023-04-27T03:39:17.480Z,3.41
2023-04-27T03:41:43.905Z,3.37
2023-04-27T03:44:10.429Z,3.38
2023-04-27T03:46:36.866Z,3.36
2023-04-27T03:49:03.385Z,3.35
2023-04-27T03:51:33.390Z,3.35
2023-04-27T03:54:02.335Z,3.39
2023-04-27T03:56:28.904Z,3.39
2023-04-27T03:58:55.494Z,3.37
2023-04-27T04:01:22.103Z,3.32
2023-04-27T04:03:54.127Z,3.29
2023-04-27T04:06:20.907Z,3.26
2023-04-27T04:08:47.520Z,3.28
2023-04-27T04:11:13.910Z,3.32
2023-04-27T04:13:41.237Z,3.29
2023-04-27T04:16:09.327Z,3.28
2023-04-27T04:18:36.608Z,3.30
2023-04-27T04:21:03.690Z,3.25
2023-04-27T04:23:30.445Z,3.34
2023-04-27T04:25:57.829Z,3.37
2023-04-27T04:28:27.673Z,3.36
2023-04-27T04:30:59.877Z,3.41
2023-04-27T04:33:27.083Z,3.46
2023-04-27T04:35:53.710Z,3.45
2023-04-27T04:38:20.989Z,3.49
2023-04-27T04:40:50.171Z,3.48
2023-04-27T04:43:17.037Z,3.49
2023-04-27T04:45:43.800Z,3.47
2023-04-27T04:48:11.389Z,3.43
2023-04-27T04:50:39.264Z,3.45
2023-04-27T04:53:05.714Z,3.47
2023-04-27T04:55:35.775Z,3.56
2023-04-27T04:58:02.233Z,3.64
2023-04-27T05:00:29.044Z,3.74
2023-04-27T05:02:55.608Z,3.82
2023-04-27T05:05:22.150Z,3.91
2023-04-27T05:07:48.616Z,4.03
2023-04-27T05:10:15.006Z,4.13
2023-04-27T05:12:41.564Z,4.25
2023-04-27T05:15:08.401Z,4.38
2023-04-27T05:17:34.897Z,4.51
2023-04-27T05:20:01.524Z,4.66
2023-04-27T05:22:28.209Z,4.81
2023-04-27T05:24:57.283Z,4.96
2023-04-27T05:27:24.263Z,5.17
2023-04-27T05:29:50.737Z,5.45
2023-04-27T05:32:17.117Z,5.82
2023-04-27T05:34:46.161Z,6.20
2023-04-27T05:37:14.208Z,6.62
2023-04-27T05:39:40.783Z,7.08
2023-04-27T05:42:07.333Z,7.53
2023-04-27T05:44:33.712Z,8.04
2023-04-27T05:47:00.056Z,8.53
2023-04-27T05:49:26.697Z,9.03
2023-04-27T05:51:55.977Z,9.35
2023-04-27T05:54:22.367Z,9.51
2023-04-27T05:56:50.339Z,9.69
2023-04-27T05:59:16.859Z,10.06
2023-04-27T06:01:43.327Z,10.53
2023-04-27T06:04:10.098Z,10.98
2023-04-27T06:06:37.096Z,11.50
2023-04-27T06:09:04.111Z,11.88
2023-04-27T06:11:33.053Z,12.22
2023-04-27T06:13:59.430Z,12.55
2023-04-27T06:16:25.962Z,12.86
2023-04-27T06:18:52.727Z,13.10
2023-04-27T06:21:19.096Z,13.32
2023-04-27T06:23:45.831Z,13.54
2023-04-27T06:26:12.238Z,13.73
2023-04-27T06:28:42.449Z,13.96
2023-04-27T06:31:08.985Z,14.16
2023-04-27T06:33:35.443Z,14.24
2023-04-27T06:36:02.392Z,14.37
2023-04-27T06:38:29.005Z,14.51
2023-04-27T06:40:55.536Z,14.68
2023-04-27T06:43:22.257Z,14.80
2023-04-27T06:45:48.733Z,14.93
2023-04-27T06:48:15.528Z,15.11
2023-04-27T06:50:42.178Z,15.35
2023-04-27T06:53:08.925Z,15.37
2023-04-27T06:55:35.797Z,15.56
2023-04-27T06:58:03.446Z,15.73
2023-04-27T07:00:30.272Z,15.92
2023-04-27T07:02:56.882Z,16.14
2023-04-27T07:05:23.485Z,16.17
2023-04-27T07:07:50.898Z,16.26
2023-04-27T07:10:19.353Z,16.33
2023-04-27T07:12:46.525Z,16.38
2023-04-27T07:15:18.576Z,16.39
2023-04-27T07:17:45.079Z,16.56
2023-04-27T07:20:11.673Z,16.72
2023-04-27T07:22:38.142Z,16.90
2023-04-27T07:25:05.384Z,17.07
2023-04-27T07:27:32.021Z,17.22
2023-04-27T07:30:01.677Z,17.25
2023-04-27T07:32:28.400Z,17.14
2023-04-27T07:34:58.626Z,17.23
2023-04-27T07:37:27.457Z,17.45
2023-04-27T07:39:57.885Z,17.64
2023-04-27T07:42:25.105Z,17.84
2023-04-27T07:44:52.395Z,17.96
2023-04-27T07:47:18.899Z,18.11
2023-04-27T07:49:48.256Z,18.30
2023-04-27T07:52:14.846Z,18.24
2023-04-27T07:54:41.482Z,18.39
2023-04-27T07:57:10.183Z,18.32
2023-04-27T07:59:36.683Z,18.28
2023-04-27T08:04:35.138Z,17.73
2023-04-27T08:07:02.529Z,17.74
2023-04-27T08:09:29.194Z,17.79
2023-04-27T08:11:55.797Z,17.69
2023-04-27T08:14:22.339Z,17.80
2023-04-27T08:16:49.002Z,17.96
2023-04-27T08:19:16.214Z,18.16
2023-04-27T08:21:45.530Z,18.14
2023-04-27T08:24:12.524Z,18.12
2023-04-27T08:26:41.214Z,18.23
2023-04-27T08:29:19.905Z,18.35
2023-04-27T08:31:56.410Z,18.32
2023-04-27T08:34:23.419Z,18.30
2023-04-27T08:36:49.854Z,18.27
2023-04-27T08:39:18.319Z,18.12
2023-04-27T08:41:44.953Z,18.08
2023-04-27T08:44:11.440Z,18.23
2023-04-27T08:46:38.599Z,18.24
2023-04-27T08:49:06.540Z,18.25
2023-04-27T08:51:34.061Z,18.09
2023-04-27T08:54:00.693Z,18.17
2023-04-27T08:56:28.657Z,18.14
2023-04-27T08:58:57.288Z,18.16
2023-04-27T09:01:25.369Z,18.21
2023-04-27T09:04:07.667Z,18.13
2023-04-27T09:06:36.144Z,18.05
2023-04-27T09:09:03.986Z,18.09
2023-04-27T09:11:32.024Z,18.28
2023-04-27T09:14:00.543Z,18.49
2023-04-27T09:16:29.226Z,18.51
2023-04-27T09:18:58.978Z,18.51
2023-04-27T09:21:31.279Z,18.58
2023-04-27T09:23:57.899Z,18.71
2023-04-27T09:26:26.787Z,18.84
2023-04-27T09:28:58.688Z,18.87
2023-04-27T09:31:35.759Z,18.77
2023-04-27T09:34:02.895Z,18.81
2023-04-27T09:36:32.328Z,18.84
2023-04-27T09:39:04.882Z,19.07
2023-04-27T09:41:32.691Z,19.30
2023-04-27T09:43:59.969Z,19.15
2023-04-27T09:46:29.702Z,19.18
2023-04-27T09:48:56.612Z,19.09
2023-04-27T09:51:23.026Z,19.21
2023-04-27T09:54:00.369Z,19.42
2023-04-27T09:57:02.478Z,19.57
2023-04-27T09:59:31.517Z,19.68
2023-04-27T10:02:10.043Z,19.84
2023-04-27T10:05:12.991Z,20.03
2023-04-27T10:07:41.362Z,20.02
2023-04-27T10:10:17.240Z,19.98
2023-04-27T10:12:43.773Z,19.99
2023-04-27T10:15:15.859Z,19.96
2023-04-27T10:17:58.573Z,19.95
2023-04-27T10:20:37.531Z,19.68
2023-04-27T10:23:04.523Z,19.64
2023-04-27T10:25:40.381Z,19.58
2023-04-27T10:28:09.092Z,19.49
2023-04-27T10:30:38.333Z,19.45
2023-04-27T10:33:07.360Z,19.47
2023-04-27T10:35:45.439Z,19.53
2023-04-27T10:38:21.020Z,19.45
2023-04-27T10:41:07.158Z,19.54
2023-04-27T10:43:35.496Z,19.39
2023-04-27T10:46:14.294Z,19.23
2023-04-27T10:48:44.410Z,19.38
2023-04-27T10:51:15.597Z,19.49
2023-04-27T10:53:42.205Z,19.54
2023-04-27T10:56:08.677Z,19.36
2023-04-27T11:01:08.332Z,19.64
2023-04-27T11:03:35.142Z,19.82
2023-04-27T11:06:06.244Z,19.91
2023-04-27T11:08:34.195Z,20.01
2023-04-27T11:11:01.718Z,20.10
2023-04-27T11:13:28.660Z,20.23
2023-04-27T11:15:59.937Z,20.24
2023-04-27T11:18:31.569Z,20.29
2023-04-27T11:21:15.678Z,20.47
2023-04-27T11:23:42.740Z,20.53
2023-04-27T11:26:19.126Z,20.54
2023-04-27T11:29:10.123Z,20.49
2023-04-27T11:31:49.160Z,20.39
2023-04-27T11:34:23.738Z,20.43
2023-04-27T11:39:41.946Z,20.44
2023-04-27T11:42:19.624Z,20.60
2023-04-27T11:44:54.261Z,20.62
2023-04-27T11:47:23.658Z,20.55
2023-04-27T11:49:51.385Z,20.55
2023-04-27T11:52:18.097Z,20.59
2023-04-27T11:54:51.870Z,20.71
2023-04-27T11:57:25.071Z,20.71
2023-04-27T11:59:52.091Z,20.81
2023-04-27T12:02:20.183Z,20.84
2023-04-27T12:04:47.817Z,20.99
2023-04-27T12:07:14.596Z,20.96
2023-04-27T12:09:41.994Z,20.97
2023-04-27T12:12:08.568Z,21.06
2023-04-27T12:14:35.189Z,21.17
2023-04-27T12:17:02.057Z,21.29
2023-04-27T12:19:28.633Z,21.34
2023-04-27T12:21:55.334Z,21.46
2023-04-27T12:24:21.823Z,21.32
2023-04-27T12:26:48.915Z,21.33
2023-04-27T12:29:15.946Z,21.32
2023-04-27T12:31:42.446Z,21.28
2023-04-27T12:34:08.912Z,21.36
2023-04-27T12:36:36.322Z,21.30
2023-04-27T12:39:18.650Z,21.09
2023-04-27T12:41:48.936Z,21.01
2023-04-27T12:44:16.726Z,20.89
2023-04-27T12:46:44.242Z,20.99
2023-04-27T12:49:12.430Z,21.16
2023-04-27T12:51:39.048Z,21.30
2023-04-27T12:54:06.615Z,21.17
2023-04-27T12:56:35.428Z,21.06
2023-04-27T12:59:01.937Z,21.22
2023-04-27T13:01:28.835Z,21.18
2023-04-27T13:03:58.407Z,21.14
2023-04-27T13:06:25.523Z,21.16
2023-04-27T13:08:52.099Z,21.10
2023-04-27T13:11:19.086Z,20.91
2023-04-27T13:13:45.706Z,20.69
2023-04-27T13:16:15.002Z,20.64
2023-04-27T13:18:46.250Z,20.63
2023-04-27T13:21:14.573Z,20.52
2023-04-27T13:23:41.032Z,20.33
2023-04-27T13:26:07.620Z,20.48
2023-04-27T13:28:34.124Z,20.25
2023-04-27T13:31:00.650Z,20.27
2023-04-27T13:33:27.246Z,20.28
2023-04-27T13:35:53.692Z,20.23
2023-04-27T13:38:20.313Z,20.35
2023-04-27T13:40:46.844Z,20.36
2023-04-27T13:43:13.407Z,20.43
2023-04-27T13:45:40.053Z,20.38
2023-04-27T13:48:07.050Z,20.39
2023-04-27T13:50:33.629Z,20.38
2023-04-27T13:53:01.313Z,20.35
2023-04-27T13:55:27.737Z,20.24
2023-04-27T13:57:54.261Z,20.17
2023-04-27T14:00:21.149Z,20.17
2023-04-27T14:02:47.824Z,20.17
2023-04-27T14:05:14.427Z,20.09
2023-04-27T14:07:40.953Z,20.05
2023-04-27T14:10:08.038Z,20.08
2023-04-27T14:12:35.863Z,20.13
2023-04-27T14:15:02.351Z,20.14
2023-04-27T14:17:31.860Z,19.97
2023-04-27T14:19:58.424Z,19.80
2023-04-27T14:22:24.971Z,19.60
2023-04-27T14:24:52.033Z,19.48
2023-04-27T14:27:18.510Z,19.35
2023-04-27T14:29:44.920Z,19.19
2023-04-27T14:32:11.631Z,19.19
2023-04-27T14:34:38.112Z,19.24
2023-04-27T14:37:04.544Z,19.23
2023-04-27T14:39:31.040Z,19.27
2023-04-27T14:41:57.685Z,19.23
2023-04-27T14:44:24.399Z,19.30
2023-04-27T14:46:51.113Z,19.16
2023-04-27T14:49:17.638Z,19.10
2023-04-27T14:51:46.835Z,19.09
2023-04-27T14:54:13.384Z,19.09
2023-04-27T14:56:39.744Z,19.11
2023-04-27T14:59:06.484Z,19.08
2023-04-27T15:01:32.936Z,18.99
2023-04-27T15:03:59.425Z,18.99
2023-04-27T15:06:30.270Z,18.98
2023-04-27T15:08:57.413Z,18.97
2023-04-27T15:11:24.004Z,18.93
2023-04-27T15:13:50.473Z,18.68
2023-04-27T15:16:17.015Z,18.66
2023-04-27T15:18:43.524Z,18.54
2023-04-27T15:21:10.299Z,18.51
2023-04-27T15:23:42.623Z,18.52
2023-04-27T15:26:09.763Z,18.60
2023-04-27T15:28:37.086Z,18.53
2023-04-27T15:31:03.640Z,18.56
2023-04-27T15:33:30.436Z,18.58
2023-04-27T15:35:56.902Z,18.57
2023-04-27T15:38:23.377Z,18.56
2023-04-27T15:40:49.920Z,18.52
2023-04-27T15:43:19.417Z,18.48
2023-04-27T15:45:45.963Z,18.37
2023-04-27T15:48:12.566Z,18.22
2023-04-27T15:50:40.170Z,18.15
2023-04-27T15:53:06.747Z,18.11
2023-04-27T15:55:33.512Z,17.99
2023-04-27T15:57:59.932Z,17.99
2023-04-27T16:00:26.465Z,18.01
2023-04-27T16:02:53.236Z,17.98
2023-04-27T16:05:19.900Z,17.92
2023-04-27T16:07:46.440Z,17.85
2023-04-27T16:10:13.563Z,17.82
2023-04-27T16:12:40.476Z,17.89
2023-04-27T16:15:10.010Z,17.92
2023-04-27T16:17:37.930Z,17.95
2023-04-27T16:20:07.925Z,17.91
2023-04-27T16:22:35.746Z,17.86
2023-04-27T16:25:03.704Z,17.77
2023-04-27T16:27:32.413Z,17.68
2023-04-27T16:29:59.122Z,17.42
2023-04-27T16:32:26.730Z,17.30
2023-04-27T16:34:53.210Z,17.30
2023-04-27T16:37:19.720Z,17.24
2023-04-27T16:39:46.533Z,17.18
2023-04-27T16:42:18.716Z,17.07
2023-04-27T16:44:48.363Z,17.03
2023-04-27T16:47:17.808Z,17.12
2023-04-27T16:49:44.501Z,17.07
2023-04-27T16:52:11.479Z,17.05
2023-04-27T16:54:37.883Z,17.02
2023-04-27T16:57:04.594Z,16.92
2023-04-27T16:59:31.046Z,16.88
2023-04-27T17:02:01.719Z,16.89
2023-04-27T17:04:39.907Z,16.81
2023-04-27T17:07:09.139Z,16.81
2023-04-27T17:09:38.535Z,16.89
2023-04-27T17:12:10.918Z,16.80
2023-04-27T17:14:38.397Z,16.68
2023-04-27T17:17:06.433Z,16.68
2023-04-27T17:19:32.990Z,16.68
2023-04-27T17:21:59.403Z,16.58
2023-04-27T17:24:26.284Z,16.53
2023-04-27T17:26:52.753Z,16.45
2023-04-27T17:29:19.177Z,16.39
2023-04-27T17:31:49.176Z,16.39
2023-04-27T17:34:15.900Z,16.32
2023-04-27T17:36:42.304Z,16.25
2023-04-27T17:39:08.729Z,16.18
2023-04-27T17:41:36.907Z,16.07
2023-04-27T17:44:04.361Z,16.00
2023-04-27T17:46:31.078Z,15.95
2023-04-27T17:48:57.753Z,15.94
2023-04-27T17:51:24.279Z,15.98
2023-04-27T17:53:50.916Z,15.89
2023-04-27T17:56:17.491Z,15.84
2023-04-27T17:58:44.179Z,15.82
2023-04-27T18:01:11.516Z,15.80
2023-04-27T18:03:38.224Z,15.82
2023-04-27T18:06:04.977Z,15.86
2023-04-27T18:08:31.405Z,15.86
2023-04-27T18:11:05.406Z,15.79
2023-04-27T18:13:37.382Z,15.74
2023-04-27T18:16:04.201Z,15.66
2023-04-27T18:18:30.976Z,15.57
2023-04-27T18:20:57.529Z,15.55
2023-04-27T18:23:24.094Z,15.53
2023-04-27T18:25:57.630Z,15.53
2023-04-27T18:28:24.249Z,15.54
2023-04-27T18:30:50.758Z,15.50
2023-04-27T18:33:17.809Z,15.45
2023-04-27T18:35:44.231Z,15.45
2023-04-27T18:38:10.907Z,15.38
2023-04-27T18:40:40.774Z,15.35
2023-04-27T18:43:07.744Z,15.35
2023-04-27T18:45:34.400Z,15.28
2023-04-27T18:48:04.083Z,15.21
2023-04-27T18:50:30.640Z,15.13
2023-04-27T18:52:59.045Z,15.08
2023-04-27T18:55:25.568Z,15.06
2023-04-27T18:57:52.856Z,15.04
2023-04-27T19:00:19.597Z,14.98
2023-04-27T19:02:46.116Z,14.95
2023-04-27T19:05:13.732Z,14.93
2023-04-27T19:07:40.989Z,14.90
2023-04-27T19:10:11.285Z,14.87
2023-04-27T19:12:38.019Z,14.82
2023-04-27T19:15:04.877Z,14.77
2023-04-27T19:17:31.585Z,14.75
2023-04-27T19:19:58.655Z,14.71
2023-04-27T19:22:26.940Z,14.62
2023-04-27T19:24:54.707Z,14.59
2023-04-27T19:27:21.327Z,14.55
2023-04-27T19:29:54.351Z,14.50
2023-04-27T19:32:21.948Z,14.46
2023-04-27T19:34:48.740Z,14.40
2023-04-27T19:37:15.885Z,14.35
2023-04-27T19:39:42.543Z,14.36
2023-04-27T19:42:09.606Z,14.39
2023-04-27T19:44:35.993Z,14.36
2023-04-27T19:47:02.458Z,14.33
2023-04-27T19:49:33.151Z,14.24
2023-04-27T19:52:00.115Z,14.25
2023-04-27T19:54:26.656Z,14.22
2023-04-27T19:56:53.922Z,14.19
2023-04-27T19:59:20.624Z,14.17
2023-04-27T20:01:47.252Z,14.15
2023-04-27T20:04:14.788Z,14.15
2023-04-27T20:06:43.292Z,14.11
2023-04-27T20:09:09.936Z,14.07
2023-04-27T20:11:36.338Z,14.05
2023-04-27T20:14:02.836Z,14.03
2023-04-27T20:16:29.335Z,14.00
2023-04-27T20:18:55.845Z,13.95
2023-04-27T20:21:22.484Z,13.86
2023-04-27T20:23:49.160Z,13.77
2023-04-27T20:26:15.965Z,13.69
2023-04-27T20:28:42.908Z,13.63
2023-04-27T20:31:09.453Z,13.55
2023-04-27T20:33:36.022Z,13.51
2023-04-27T20:36:14.134Z,13.46
2023-04-27T20:38:43.568Z,13.50
2023-04-27T20:41:10.634Z,13.53
2023-04-27T20:43:41.181Z,13.47
2023-04-27T20:46:08.005Z,13.42
2023-04-27T20:48:34.671Z,13.30
2023-04-27T20:51:01.269Z,13.12
2023-04-27T20:53:28.164Z,13.08
2023-04-27T20:55:54.958Z,13.10
2023-04-27T20:58:21.612Z,13.11
2023-04-27T21:00:48.292Z,13.11
2023-04-27T21:03:14.852Z,13.09
2023-04-27T21:05:41.484Z,13.11
2023-04-27T21:08:08.066Z,13.13
2023-04-27T21:10:35.588Z,13.11
2023-04-27T21:13:03.982Z,13.12
2023-04-27T21:15:30.632Z,13.12
2023-04-27T21:17:57.222Z,13.06
2023-04-27T21:20:23.818Z,13.04
2023-04-27T21:22:50.354Z,13.03
2023-04-27T21:25:16.817Z,12.99
2023-04-27T21:27:43.423Z,12.97
2023-04-27T21:30:11.174Z,12.95
2023-04-27T21:32:37.715Z,12.94
2023-04-27T21:35:04.542Z,12.91
2023-04-27T21:37:34.696Z,12.88
2023-04-27T21:40:01.616Z,12.82
2023-04-27T21:42:28.599Z,12.75
2023-04-27T21:44:59.176Z,12.72
2023-04-27T21:47:25.681Z,12.72
2023-04-27T21:49:52.605Z,12.71
2023-04-27T21:52:21.459Z,12.67
2023-04-27T21:54:48.037Z,12.62
2023-04-27T21:57:18.713Z,12.61
2023-04-27T21:59:46.431Z,12.51
2023-04-27T22:02:15.020Z,12.43
2023-04-27T22:04:41.639Z,12.38
2023-04-27T22:07:08.659Z,12.38
2023-04-27T22:09:35.664Z,12.36
2023-04-27T22:12:05.715Z,12.36
2023-04-27T22:14:32.383Z,12.29
2023-04-27T22:17:00.682Z,12.21
2023-04-27T22:19:27.961Z,12.27
2023-04-27T22:21:54.699Z,12.30
2023-04-27T22:24:21.192Z,12.26
2023-04-27T22:26:48.402Z,12.23
2023-04-27T22:29:15.931Z,12.21
2023-04-27T22:31:43.417Z,12.21
2023-04-27T22:34:11.986Z,12.15
2023-04-27T22:36:38.689Z,12.10
2023-04-27T22:39:05.814Z,12.06
2023-04-27T22:41:32.312Z,12.02
2023-04-27T22:44:01.878Z,11.99
2023-04-27T22:46:28.618Z,11.97
2023-04-27T22:48:55.259Z,11.97
2023-04-27T22:51:21.873Z,11.96
2023-04-27T22:53:48.848Z,11.95
2023-04-27T22:56:19.486Z,11.94
2023-04-27T22:58:46.638Z,11.95
2023-04-27T23:01:13.169Z,11.90
2023-04-27T23:03:39.972Z,11.81
2023-04-27T23:06:07.171Z,11.81
2023-04-27T23:08:33.651Z,11.82
2023-04-27T23:10:59.994Z,11.82
2023-04-27T23:13:29.048Z,11.80
2023-04-27T23:15:55.896Z,11.78
2023-04-27T23:18:22.360Z,11.76
2023-04-27T23:20:57.917Z,11.76
2023-04-27T23:23:24.434Z,11.76
2023-04-27T23:25:51.166Z,11.77
2023-04-27T23:28:17.595Z,11.79
2023-04-27T23:30:44.188Z,11.74
2023-04-27T23:33:10.752Z,11.69
2023-04-27T23:35:37.350Z,11.68
2023-04-27T23:38:03.885Z,11.68
2023-04-27T23:40:30.490Z,11.68
2023-04-27T23:42:57.169Z,11.64
2023-04-27T23:45:23.670Z,11.60
2023-04-27T23:48:00.292Z,11.57
2023-04-27T23:50:26.925Z,11.57
2023-04-27T23:52:53.372Z,11.58
2023-04-27T23:55:20.089Z,11.58
2023-04-27T23:57:46.896Z,11.60
